Time;durP1;ratioP1;P1;durP2;ratioP2;P2;SDS_P1;SDS_P2;PMS_P1;PMS_P2;Temp;Humidity;BMP_temperature;BMP_pressure;BME280_temperature;BME280_humidity;BME280_pressure;Samples;Min_cycle;Max_cycle;Signal;HPM_P1;HPM_P2
2022/03/25 00:02:16;;;;;;;13.98;8.20;;;;;;;10.31;32.33;100686.66;4442747;32;32315;-81
2022/03/25 00:04:45;;;;;;;19.05;8.35;;;;;;;10.39;32.03;100683.84;4456175;32;34092;-81
2022/03/25 00:07:13;;;;;;;14.13;7.87;;;;;;;10.25;32.25;100687.38;4443336;32;34047;-82
2022/03/25 00:09:40;;;;;;;15.45;7.97;;;;;;;10.31;32.22;100683.91;4443405;32;32787;-81
2022/03/25 00:12:08;;;;;;;16.12;7.95;;;;;;;10.14;32.54;100677.66;4443896;32;32178;-82
2022/03/25 00:14:37;;;;;;;17.35;7.97;;;;;;;10.24;32.48;100677.44;4442885;32;33545;-81
2022/03/25 00:17:07;;;;;;;16.67;7.95;;;;;;;10.09;32.57;100682.84;4443442;32;32430;-81
2022/03/25 00:19:35;;;;;;;16.08;7.80;;;;;;;10.11;32.65;100678.03;4443382;32;32995;-81
2022/03/25 00:22:03;;;;;;;18.80;7.65;;;;;;;9.97;32.98;100677.94;4430384;32;32521;-82
2022/03/25 00:24:33;;;;;;;14.65;7.20;;;;;;;10.03;32.87;100679.97;4443362;32;33998;-81
2022/03/25 00:27:02;;;;;;;15.18;7.45;;;;;;;9.95;32.79;100672.62;4443382;32;33307;-81
2022/03/25 00:29:29;;;;;;;15.23;7.97;;;;;;;9.97;32.75;100675.19;4443120;32;32145;-81
2022/03/25 00:31:57;;;;;;;15.52;7.50;;;;;;;9.88;32.96;100674.37;4443026;32;33273;-82
2022/03/25 00:34:25;;;;;;;15.15;7.57;;;;;;;9.93;32.87;100682.06;4430414;32;32794;-82
2022/03/25 00:36:55;;;;;;;17.15;8.13;;;;;;;9.84;33.16;100681.25;4456046;32;34667;-81
2022/03/25 00:39:23;;;;;;;15.88;7.00;;;;;;;9.72;33.40;100686.31;4443114;32;31960;-81
2022/03/25 00:41:51;;;;;;;13.13;6.93;;;;;;;9.68;33.50;100684.13;4441995;32;32338;-81
2022/03/25 00:44:20;;;;;;;11.02;6.18;;;;;;;9.82;33.24;100686.06;4430392;32;32869;-81
2022/03/25 00:46:50;;;;;;;13.13;6.07;;;;;;;9.77;33.22;100683.88;4443304;32;34367;-81
2022/03/25 00:49:18;;;;;;;13.57;7.45;;;;;;;9.74;33.23;100683.41;4443386;32;34080;-82
2022/03/25 00:51:46;;;;;;;16.35;7.03;;;;;;;9.63;33.45;100673.69;4456097;32;34406;-82
2022/03/25 00:54:16;;;;;;;16.62;6.50;;;;;;;9.56;33.40;100680.91;4443260;32;33985;-81
2022/03/25 00:56:48;;;;;;;13.98;6.93;;;;;;;9.54;33.48;100681.09;4444163;32;34009;-81
2022/03/25 00:59:16;;;;;;;14.90;7.18;;;;;;;9.28;34.00;100683.25;4443307;32;31857;-81
2022/03/25 01:01:44;;;;;;;18.48;7.50;;;;;;;9.38;34.06;100686.62;4443195;32;32354;-82
2022/03/25 01:04:12;;;;;;;15.70;7.07;;;;;;;9.29;34.41;100679.47;4442683;32;33468;-82
2022/03/25 01:06:40;;;;;;;14.15;6.75;;;;;;;9.33;34.40;100675.34;4442878;32;33956;-81
2022/03/25 01:09:10;;;;;;;15.18;7.00;;;;;;;9.35;34.18;100669.69;4442967;32;33195;-82
2022/03/25 01:11:40;;;;;;;15.98;7.80;;;;;;;9.27;34.09;100673.31;4442687;32;32149;-82
2022/03/25 01:14:08;;;;;;;16.92;7.55;;;;;;;9.03;34.30;100673.41;4440359;32;34425;-81
2022/03/25 01:16:35;;;;;;;14.50;7.07;;;;;;;9.10;34.23;100674.44;4440129;32;34160;-81
2022/03/25 01:19:04;;;;;;;12.95;6.75;;;;;;;9.00;34.56;100680.09;4440155;32;34019;-82
2022/03/25 01:21:32;;;;;;;13.77;6.65;;;;;;;8.86;35.20;100676.19;4452942;32;34419;-82
2022/03/25 01:24:00;;;;;;;14.30;7.15;;;;;;;9.02;34.96;100678.03;4440930;32;34746;-82
2022/03/25 01:26:27;;;;;;;13.98;5.90;;;;;;;9.14;34.63;100675.75;4442677;32;33412;-82
2022/03/25 01:28:55;;;;;;;14.18;6.75;;;;;;;8.97;34.58;100685.91;4455585;32;34172;-82
2022/03/25 01:31:23;;;;;;;15.18;6.20;;;;;;;8.96;34.66;100684.22;4455554;32;33895;-82
2022/03/25 01:33:51;;;;;;;14.13;6.22;;;;;;;8.78;35.04;100683.56;4442830;32;33218;-82
2022/03/25 01:36:19;;;;;;;14.90;6.65;;;;;;;8.73;35.23;100677.75;4442816;32;32556;-82
2022/03/25 01:38:47;;;;;;;15.30;6.18;;;;;;;8.56;35.74;100688.69;4455432;32;33373;-82
2022/03/25 01:41:18;;;;;;;12.50;6.15;;;;;;;8.70;35.65;100689.88;4455103;32;33691;-82
2022/03/25 01:43:54;;;;;;;14.73;5.80;;;;;;;8.69;35.57;100693.66;4455545;32;33007;-82
2022/03/25 01:46:25;;;;;;;13.30;5.72;;;;;;;8.78;35.25;100697.25;4455523;32;35080;-82
2022/03/25 01:48:53;;;;;;;12.45;5.75;;;;;;;8.68;35.36;100691.09;4454833;32;33806;-82
2022/03/25 01:51:33;;;;;;;13.60;5.87;;;;;;;8.63;35.41;100697.06;4455289;32;33251;-82
2022/03/25 01:54:27;;;;;;;17.58;5.75;;;;;;;8.65;35.44;100697.75;4457471;32;34394;-82
2022/03/25 01:57:03;;;;;;;13.02;5.60;;;;;;;8.60;35.58;100694.69;4457248;32;32853;-82
2022/03/25 01:59:32;;;;;;;10.63;5.70;;;;;;;8.58;35.71;100697.59;4457210;32;33234;-82
2022/03/25 02:02:07;;;;;;;12.02;5.93;;;;;;;8.43;35.99;100701.22;4457224;32;33768;-82
2022/03/25 02:04:36;;;;;;;12.68;5.28;;;;;;;8.36;36.36;100702.91;4457739;32;34204;-82
2022/03/25 02:07:04;;;;;;;13.93;5.57;;;;;;;8.49;36.15;100698.63;4457230;32;34453;-82
2022/03/25 02:09:34;;;;;;;12.70;5.90;;;;;;;8.19;37.17;100702.84;4457713;32;33446;-82
2022/03/25 02:12:04;;;;;;;12.82;5.90;;;;;;;8.40;36.82;100696.06;4445263;32;33198;-82
2022/03/25 02:14:34;;;;;;;13.32;5.50;;;;;;;8.33;36.83;100700.50;4456993;32;34074;-82
2022/03/25 02:17:02;;;;;;;11.30;5.25;;;;;;;8.47;36.40;100708.88;4458003;32;33703;-82
2022/03/25 02:19:30;;;;;;;17.55;5.75;;;;;;;8.13;36.91;100703.53;4444890;32;33105;-82
2022/03/25 02:21:57;;;;;;;11.25;5.57;;;;;;;8.43;36.42;100715.75;4457083;32;34484;-82
2022/03/25 02:24:25;;;;;;;12.75;5.55;;;;;;;8.21;36.61;100705.41;4444597;32;33873;-82
2022/03/25 02:26:53;;;;;;;12.13;5.32;;;;;;;8.18;36.59;100712.09;4444495;32;32235;-82
2022/03/25 02:29:21;;;;;;;11.82;5.68;;;;;;;8.23;36.59;100708.84;4457034;32;31797;-82
2022/03/25 02:31:48;;;;;;;10.50;5.15;;;;;;;8.06;36.80;100715.31;4457171;32;33809;-82
2022/03/25 02:34:16;;;;;;;11.80;5.00;;;;;;;8.10;36.88;100712.06;4457074;32;34392;-82
2022/03/25 02:36:45;;;;;;;9.88;5.30;;;;;;;8.03;37.19;100713.75;4456975;32;34028;-82
2022/03/25 02:39:15;;;;;;;12.85;5.65;;;;;;;8.23;36.79;100715.16;4456952;32;33500;-82
2022/03/25 02:41:44;;;;;;;11.52;5.37;;;;;;;8.11;36.91;100713.78;4456931;32;32254;-82
2022/03/25 02:44:14;;;;;;;11.00;5.18;;;;;;;8.15;36.77;100719.75;4443856;32;33335;-82
2022/03/25 02:46:42;;;;;;;11.93;5.43;;;;;;;8.01;37.13;100732.19;4444331;32;32486;-82
2022/03/25 02:49:11;;;;;;;12.40;5.47;;;;;;;8.02;37.01;100730.31;4457072;32;34057;-82
2022/03/25 02:51:41;;;;;;;13.75;6.20;;;;;;;8.09;37.05;100728.63;4456857;32;32289;-82
2022/03/25 02:54:08;;;;;;;11.38;5.37;;;;;;;8.07;37.25;100741.63;4456753;32;33797;-82
2022/03/25 02:56:36;;;;;;;13.80;5.80;;;;;;;7.84;37.63;100744.97;4456871;32;34431;-82
2022/03/25 02:59:04;;;;;;;12.10;5.53;;;;;;;7.72;37.92;100745.47;4456741;32;32258;-82
2022/03/25 03:01:33;;;;;;;13.07;6.20;;;;;;;7.64;38.04;100751.75;4456898;32;33363;-82
2022/03/25 03:04:01;;;;;;;16.98;6.12;;;;;;;7.66;38.17;100746.13;4455999;32;33815;-82
2022/03/25 03:06:29;;;;;;;12.20;5.82;;;;;;;7.47;38.63;100752.69;4469491;32;34474;-82
2022/03/25 03:08:56;;;;;;;14.13;5.40;;;;;;;7.65;38.43;100756.19;4456808;32;34101;-82
2022/03/25 03:11:24;;;;;;;13.32;6.28;;;;;;;7.74;38.12;100749.72;4453411;32;198663;-82
2022/03/25 03:13:52;;;;;;;14.43;6.43;;;;;;;7.70;37.98;100750.22;4456525;32;33542;-82
2022/03/25 03:16:19;;;;;;;12.00;5.35;;;;;;;7.85;37.75;100745.81;4456827;32;32053;-82
2022/03/25 03:18:47;;;;;;;12.98;5.50;;;;;;;7.73;37.91;100744.44;4456685;32;31221;-82
2022/03/25 03:21:17;;;;;;;12.82;5.70;;;;;;;7.53;38.09;100749.28;4456610;32;32308;-82
2022/03/25 03:23:45;;;;;;;12.05;5.97;;;;;;;7.69;37.87;100756.72;4456881;32;35102;-82
2022/03/25 03:26:13;;;;;;;10.13;5.55;;;;;;;7.50;38.23;100753.22;4456689;32;33996;-82
2022/03/25 03:28:40;;;;;;;9.45;5.32;;;;;;;7.51;38.27;100756.78;4456593;32;33210;-82
2022/03/25 03:31:09;;;;;;;13.13;5.40;;;;;;;7.43;38.19;100752.16;4456566;32;32310;-82
2022/03/25 03:33:37;;;;;;;16.77;6.07;;;;;;;7.54;38.00;100759.19;4443910;32;32913;-82
2022/03/25 03:36:05;;;;;;;13.85;5.87;;;;;;;7.49;38.11;100756.09;4442858;32;32423;-82
2022/03/25 03:38:32;;;;;;;14.10;5.45;;;;;;;7.42;38.08;100755.91;4443974;32;31819;-82
2022/03/25 03:41:00;;;;;;;12.60;5.30;;;;;;;7.43;38.02;100756.75;4456645;32;33885;-82
2022/03/25 03:43:28;;;;;;;14.15;5.97;;;;;;;7.37;38.23;100755.53;4456539;32;33070;-82
2022/03/25 03:45:55;;;;;;;12.02;5.57;;;;;;;7.34;38.32;100752.25;4456554;32;33340;-82
2022/03/25 03:48:23;;;;;;;13.15;6.20;;;;;;;7.44;38.30;100748.41;4443663;32;32771;-82
2022/03/25 03:50:51;;;;;;;15.18;5.53;;;;;;;7.38;38.19;100754.50;4443720;32;32346;-82
2022/03/25 03:53:21;;;;;;;12.88;6.22;;;;;;;7.34;38.21;100755.84;4456507;32;35224;-82
2022/03/25 03:55:49;;;;;;;12.95;5.20;;;;;;;7.43;37.92;100754.88;4456799;32;34014;-82
2022/03/25 03:58:35;;;;;;;12.75;5.32;;;;;;;7.36;38.14;100759.28;4447541;32;33239;-82
2022/03/25 04:01:06;;;;;;;13.55;5.35;;;;;;;7.28;38.17;100753.75;4456456;32;33907;-82
2022/03/25 04:03:36;;;;;;;9.90;5.93;;;;;;;7.21;38.22;100749.97;4456645;32;34153;-82
2022/03/25 04:06:05;;;;;;;16.17;6.35;;;;;;;7.25;38.25;100752.22;4456717;32;33959;-82
2022/03/25 04:08:34;;;;;;;12.48;5.70;;;;;;;7.13;38.72;100744.47;4456530;32;33244;-82
2022/03/25 04:11:03;;;;;;;14.85;5.60;;;;;;;7.13;38.85;100747.22;4456508;32;33688;-82
2022/03/25 04:13:31;;;;;;;12.80;5.18;;;;;;;6.93;39.12;100741.97;4444978;32;32708;-82
2022/03/25 04:15:58;;;;;;;9.68;5.15;;;;;;;7.01;39.13;100749.34;4458754;32;32338;-82
2022/03/25 04:18:27;;;;;;;14.50;6.25;;;;;;;6.99;39.31;100750.53;4459051;32;32771;-82
2022/03/25 04:20:54;;;;;;;10.82;5.70;;;;;;;6.81;39.72;100745.97;4459054;32;33593;-82
2022/03/25 04:23:22;;;;;;;13.05;5.50;;;;;;;6.80;39.75;100741.50;4458975;32;34457;-82
2022/03/25 04:25:50;;;;;;;11.50;5.47;;;;;;;6.88;39.50;100743.44;4446220;32;32549;-82
2022/03/25 04:28:18;;;;;;;14.38;5.57;;;;;;;6.88;39.60;100749.75;4458775;32;33129;-82
2022/03/25 04:30:45;;;;;;;12.05;5.80;;;;;;;6.90;39.68;100741.41;4459052;32;33214;-82
2022/03/25 04:33:14;;;;;;;13.55;6.03;;;;;;;6.82;39.94;100744.94;4459085;32;34297;-82
2022/03/25 04:35:41;;;;;;;12.68;5.75;;;;;;;6.70;40.05;100751.66;4458799;32;34647;-82
2022/03/25 04:38:09;;;;;;;12.98;6.05;;;;;;;6.86;39.71;100756.41;4458744;32;31966;-82
2022/03/25 04:40:37;;;;;;;12.93;5.80;;;;;;;6.56;40.26;100753.06;4458841;32;33334;-82
2022/03/25 04:43:05;;;;;;;12.50;6.10;;;;;;;6.46;40.70;100748.75;4458648;32;32814;-82
2022/03/25 04:45:33;;;;;;;13.00;6.87;;;;;;;6.42;40.95;100755.53;4459090;32;33759;-82
2022/03/25 04:48:01;;;;;;;17.10;7.12;;;;;;;6.28;41.59;100762.37;4458921;32;33340;-82
2022/03/25 04:50:28;;;;;;;16.35;7.12;;;;;;;6.60;41.01;100759.94;4458767;32;33700;-82
2022/03/25 04:52:56;;;;;;;15.60;6.53;;;;;;;6.63;40.59;100761.50;4458835;32;34504;-82
2022/03/25 04:55:24;;;;;;;16.80;7.05;;;;;;;6.73;40.40;100770.44;4458572;32;33786;-82
2022/03/25 04:57:52;;;;;;;14.52;6.57;;;;;;;6.86;39.96;100762.72;4458389;32;31514;-82
2022/03/25 05:00:22;;;;;;;14.60;6.07;;;;;;;6.79;39.98;100763.50;4445725;32;33507;-90
2022/03/25 05:02:50;;;;;;;15.27;6.75;;;;;;;6.65;40.23;100770.38;4458685;32;34832;-81
2022/03/25 05:05:18;;;;;;;16.92;6.35;;;;;;;6.55;40.87;100759.53;4458649;32;34679;-81
2022/03/25 05:07:47;;;;;;;13.90;6.53;;;;;;;6.75;40.55;100760.22;4458483;32;31793;-81
2022/03/25 05:10:15;;;;;;;14.50;6.47;;;;;;;6.64;40.61;100765.94;4458207;32;33233;-81
2022/03/25 05:12:44;;;;;;;13.65;6.30;;;;;;;6.46;41.13;100765.13;4457198;32;34659;-81
2022/03/25 05:15:12;;;;;;;14.43;7.03;;;;;;;6.54;40.94;100765.16;4470926;32;34679;-81
2022/03/25 05:17:47;;;;;;;12.52;6.72;;;;;;;6.45;41.40;100764.25;4458347;32;31973;-81
2022/03/25 05:20:16;;;;;;;17.60;6.60;;;;;;;6.47;41.90;100766.81;4458148;32;33698;-81
2022/03/25 05:22:45;;;;;;;13.95;6.57;;;;;;;6.74;41.33;100761.25;4458442;32;32844;-81
2022/03/25 05:25:13;;;;;;;17.80;6.60;;;;;;;6.94;40.84;100770.97;4458594;32;34810;-81
2022/03/25 05:27:54;;;;;;;14.55;6.43;;;;;;;7.03;40.58;100771.88;4457594;32;33261;-81
2022/03/25 05:30:24;;;;;;;13.98;7.20;;;;;;;6.90;41.07;100774.16;4458165;32;32948;-81
2022/03/25 05:32:54;;;;;;;17.65;7.50;;;;;;;7.15;40.65;100772.47;4458041;32;33029;-86
2022/03/25 05:35:23;;;;;;;18.30;8.80;;;;;;;7.12;40.86;100778.25;4458397;32;34098;-81
2022/03/25 05:37:51;;;;;;;15.82;8.40;;;;;;;7.43;40.45;100779.44;4457947;32;32962;-82
2022/03/25 05:40:21;;;;;;;14.43;7.57;;;;;;;7.59;40.30;100779.53;4458205;32;34542;-80
2022/03/25 05:42:49;;;;;;;16.00;7.28;;;;;;;7.67;40.16;100783.34;4457941;32;33863;-80
2022/03/25 05:45:18;;;;;;;26.30;9.05;;;;;;;7.82;40.06;100782.53;4458210;32;33825;-81
2022/03/25 05:47:46;;;;;;;18.23;8.27;;;;;;;7.93;39.75;100781.38;4458387;32;33263;-81
2022/03/25 05:50:14;;;;;;;18.05;8.70;;;;;;;7.92;40.22;100783.25;4457815;32;32107;-81
2022/03/25 05:52:42;;;;;;;18.52;8.05;;;;;;;8.04;40.29;100781.06;4458141;32;35215;-81
2022/03/25 05:55:13;;;;;;;14.98;8.07;;;;;;;8.10;40.44;100780.41;4457849;32;33457;-80
2022/03/25 05:57:40;;;;;;;17.48;8.43;;;;;;;8.34;40.36;100787.00;4458245;32;33220;-79
2022/03/25 06:00:09;;;;;;;14.63;8.02;;;;;;;8.43;40.15;100781.38;4457591;32;32474;-81
2022/03/25 06:02:41;;;;;;;19.00;8.35;;;;;;;8.53;39.89;100781.19;4458265;32;35436;-80
2022/03/25 06:05:13;;;;;;;17.10;8.20;;;;;;;8.85;39.69;100774.91;4456375;32;34556;-80
2022/03/25 06:07:43;;;;;;;18.77;7.90;;;;;;;9.05;39.51;100779.00;4457741;32;33084;-80
2022/03/25 06:10:13;;;;;;;21.37;9.38;;;;;;;9.29;38.99;100772.63;4429323;32;32444;-80
2022/03/25 06:12:41;;;;;;;22.25;11.15;;;;;;;9.50;38.45;100780.28;4441860;32;32984;-80
2022/03/25 06:15:09;;;;;;;19.95;9.32;;;;;;;9.87;37.54;100780.47;4441615;32;33944;-80
2022/03/25 06:17:53;;;;;;;16.60;8.25;;;;;;;9.99;37.79;100772.69;4428620;32;32802;-80
2022/03/25 06:20:23;;;;;;;17.80;8.02;;;;;;;10.20;37.02;100775.72;4429282;32;32005;-79
2022/03/25 06:22:55;;;;;;;15.38;7.72;;;;;;;10.39;38.55;100779.03;4428884;32;34760;-79
2022/03/25 06:25:23;;;;;;;18.70;8.00;;;;;;;10.73;37.10;100768.47;4454375;32;32511;-79
2022/03/25 06:27:56;;;;;;;20.27;6.87;;;;;;;10.95;36.91;100774.16;4454473;32;33350;-79
2022/03/25 06:30:27;;;;;;;20.83;8.60;;;;;;;11.27;36.88;100771.06;4454656;32;34626;-79
2022/03/25 06:32:58;;;;;;;20.62;7.60;;;;;;;11.38;35.86;100778.00;4454305;32;34276;-79
2022/03/25 06:35:26;;;;;;;21.62;8.20;;;;;;;11.72;35.00;100777.44;4441412;32;34133;-79
2022/03/25 06:38:00;;;;;;;17.40;7.60;;;;;;;11.95;34.54;100778.22;4453946;32;32878;-79
2022/03/25 06:40:32;;;;;;;17.70;8.65;;;;;;;12.36;33.94;100773.00;4456382;32;34011;-79
2022/03/25 06:42:59;;;;;;;20.65;8.65;;;;;;;12.66;33.55;100776.50;4456237;32;32962;-79
2022/03/25 06:45:28;;;;;;;19.58;9.15;;;;;;;12.97;33.34;100776.19;4470134;32;33996;-79
2022/03/25 06:47:56;;;;;;;19.48;9.60;;;;;;;13.43;32.78;100773.81;4443301;32;31879;-79
2022/03/25 06:50:26;;;;;;;19.30;9.05;;;;;;;13.78;32.14;100774.66;4443635;32;33279;-79
2022/03/25 06:52:57;;;;;;;19.37;8.57;;;;;;;14.00;32.00;100772.66;4456236;32;34409;-78
2022/03/25 06:55:26;;;;;;;18.60;8.25;;;;;;;13.91;29.80;100773.03;4431252;32;32409;-79
2022/03/25 06:57:54;;;;;;;15.55;8.35;;;;;;;14.10;29.91;100775.06;4457012;32;32965;-79
2022/03/25 07:00:22;;;;;;;14.98;7.82;;;;;;;14.34;30.20;100776.41;4444072;32;32950;-79
2022/03/25 07:02:51;;;;;;;18.00;7.05;;;;;;;14.60;28.93;100784.81;4456396;32;35999;-79
2022/03/25 07:05:21;;;;;;;19.02;7.32;;;;;;;14.70;28.54;100779.72;4456701;32;34105;-79
2022/03/25 07:07:50;;;;;;;16.48;7.10;;;;;;;15.10;28.51;100777.84;4444221;32;31779;-80
2022/03/25 07:10:23;;;;;;;15.63;7.68;;;;;;;15.32;27.43;100783.19;4443498;32;33540;-79
2022/03/25 07:12:51;;;;;;;16.17;6.90;;;;;;;15.45;27.25;100784.03;4444273;32;33082;-79
2022/03/25 07:15:20;;;;;;;14.63;7.75;;;;;;;15.97;26.43;100785.00;4443625;32;33990;-79
2022/03/25 07:17:52;;;;;;;20.02;8.05;;;;;;;16.16;25.94;100786.00;4444115;32;33563;-79
2022/03/25 07:20:22;;;;;;;17.45;8.95;;;;;;;16.32;25.48;100774.41;4444024;32;34671;-79
2022/03/25 07:22:51;;;;;;;18.35;8.38;;;;;;;16.61;25.31;100784.06;4443626;32;32950;-79
2022/03/25 07:25:20;;;;;;;16.48;8.13;;;;;;;16.94;25.25;100786.66;4456537;32;33807;-79
2022/03/25 07:27:48;;;;;;;17.37;8.13;;;;;;;17.07;24.53;100783.78;4456311;32;31780;-79
2022/03/25 07:30:18;;;;;;;18.73;8.05;;;;;;;17.16;24.74;100789.91;4443487;32;33165;-79
2022/03/25 07:32:46;;;;;;;18.83;8.45;;;;;;;17.50;24.36;100790.50;4456606;32;34683;-79
2022/03/25 07:35:14;;;;;;;13.45;7.70;;;;;;;17.29;24.23;100792.59;4443333;32;32231;-79
2022/03/25 07:37:47;;;;;;;18.62;7.78;;;;;;;17.61;24.02;100789.72;4456426;32;33798;-79
2022/03/25 07:40:15;;;;;;;14.55;8.10;;;;;;;17.73;24.21;100794.31;4456457;32;33939;-79
2022/03/25 07:42:44;;;;;;;17.00;8.07;;;;;;;17.81;24.00;100787.62;4443552;32;34418;-79
2022/03/25 07:45:15;;;;;;;15.48;7.93;;;;;;;17.62;24.24;100794.19;4456268;32;34090;-79
2022/03/25 07:47:45;;;;;;;17.20;8.60;;;;;;;17.55;24.13;100796.22;4455682;32;32599;-79
2022/03/25 07:50:16;;;;;;;15.50;8.13;;;;;;;17.47;24.03;100800.13;4442476;32;34599;-79
2022/03/25 07:52:50;;;;;;;18.17;8.00;;;;;;;17.24;24.24;100800.72;4451567;32;32923;-79
2022/03/25 07:55:19;;;;;;;18.30;8.68;;;;;;;17.38;23.86;100794.00;4456247;32;34194;-79
2022/03/25 07:57:48;;;;;;;15.10;8.15;;;;;;;17.89;24.34;100798.44;4456528;32;33265;-79
2022/03/25 08:00:17;;;;;;;16.90;7.53;;;;;;;18.22;23.44;100797.19;4443236;32;33128;-79
2022/03/25 08:02:50;;;;;;;15.63;7.75;;;;;;;18.00;23.20;100786.56;4456126;32;32868;-79
2022/03/25 08:05:18;;;;;;;16.35;7.57;;;;;;;17.69;23.44;100792.25;4458562;32;33280;-79
2022/03/25 08:07:48;;;;;;;15.10;7.78;;;;;;;17.68;23.47;100801.66;4459084;32;33620;-78
2022/03/25 08:10:18;;;;;;;20.50;7.57;;;;;;;17.94;23.36;100800.53;4459261;32;33240;-79
2022/03/25 08:12:46;;;;;;;14.48;7.60;;;;;;;18.04;22.68;100787.81;4459094;32;35332;-79
2022/03/25 08:15:15;;;;;;;15.75;8.77;;;;;;;18.65;22.65;100791.53;4458750;32;33399;-79
2022/03/25 08:17:55;;;;;;;15.93;8.20;;;;;;;18.62;22.82;100786.47;4446395;32;31877;-79
2022/03/25 08:20:25;;;;;;;16.52;7.22;;;;;;;17.97;23.05;100792.59;4458366;32;32276;-79
2022/03/25 08:22:54;;;;;;;18.70;7.45;;;;;;;18.20;23.14;100788.28;4471736;32;34418;-78
2022/03/25 08:28:11;;;;;;;15.43;7.70;;;;;;;18.92;22.79;100781.72;4460603;32;31925;-79
2022/03/25 08:30:40;;;;;;;16.85;6.85;;;;;;;19.26;22.12;100780.09;4458627;32;31954;-76
2022/03/25 08:33:08;;;;;;;13.32;6.60;;;;;;;19.39;21.76;100782.66;4459154;32;34322;-79
2022/03/25 08:35:38;;;;;;;12.50;7.37;;;;;;;19.16;21.76;100782.63;4458682;32;31821;-79
2022/03/25 08:38:09;;;;;;;11.43;6.82;;;;;;;18.93;22.06;100783.41;4471723;32;34114;-79
2022/03/25 08:40:38;;;;;;;14.27;7.25;;;;;;;19.18;22.14;100783.22;4458841;32;33745;-78
2022/03/25 08:43:28;;;;;;;18.90;7.57;;;;;;;18.97;22.30;100784.62;4450005;32;33802;-79
2022/03/25 08:45:56;;;;;;;15.80;7.07;;;;;;;19.06;22.05;100777.62;4458791;32;33927;-79
2022/03/25 08:48:24;;;;;;;16.55;7.00;;;;;;;19.62;21.02;100775.44;4458593;32;33310;-79
2022/03/25 08:50:54;;;;;;;16.23;7.37;;;;;;;19.91;20.56;100780.03;4445702;32;32547;-79
2022/03/25 08:53:22;;;;;;;13.77;6.60;;;;;;;20.01;20.89;100780.25;4445842;32;33944;-80
2022/03/25 08:55:49;;;;;;;14.73;7.65;;;;;;;19.86;21.25;100788.25;4445186;32;32269;-79
2022/03/25 08:58:17;;;;;;;13.10;7.37;;;;;;;20.21;20.49;100778.97;4458798;32;33483;-79
2022/03/25 09:00:45;;;;;;;14.57;7.62;;;;;;;19.84;20.25;100781.25;4458861;32;34684;-79
2022/03/25 09:03:13;;;;;;;13.45;7.53;;;;;;;20.05;20.44;100784.25;4457406;32;34317;-78
2022/03/25 09:05:40;;;;;;;14.90;7.65;;;;;;;20.15;20.18;100780.81;4445494;32;32495;-78
2022/03/25 09:08:08;;;;;;;15.70;7.22;;;;;;;20.27;19.95;100786.37;4458504;32;33973;-79
2022/03/25 09:10:36;;;;;;;13.73;7.60;;;;;;;20.42;19.91;100783.09;4458337;32;33264;-79
2022/03/25 09:13:05;;;;;;;16.77;7.70;;;;;;;20.59;19.87;100776.50;4458482;32;34353;-78
2022/03/25 09:15:33;;;;;;;13.43;7.50;;;;;;;20.77;19.44;100781.03;4458538;32;34602;-78
2022/03/25 09:18:01;;;;;;;12.50;7.50;;;;;;;20.73;19.29;100781.78;4458199;32;32969;-79
2022/03/25 09:20:34;;;;;;;19.00;7.82;;;;;;;21.14;19.04;100781.41;4458530;32;32342;-79
2022/03/25 09:23:01;;;;;;;17.08;8.15;;;;;;;20.86;19.00;100781.44;4458249;32;34462;-79
2022/03/25 09:25:30;;;;;;;14.77;7.30;;;;;;;20.53;19.99;100771.06;4458378;32;33993;-79
2022/03/25 09:27:58;;;;;;;12.37;7.43;;;;;;;20.78;19.50;100774.34;4458464;32;33357;-79
2022/03/25 09:30:26;;;;;;;25.30;7.85;;;;;;;21.35;20.05;100779.87;4458038;32;32061;-79
2022/03/25 09:33:04;;;;;;;17.73;8.15;;;;;;;21.34;18.77;100778.16;4447163;32;32945;-79
2022/03/25 09:35:35;;;;;;;13.80;7.60;;;;;;;21.46;18.97;100769.69;4445525;32;32487;-79
2022/03/25 09:38:04;;;;;;;16.33;7.97;;;;;;;21.46;18.88;100764.09;4457906;32;31844;-79
2022/03/25 09:40:32;;;;;;;16.17;7.57;;;;;;;21.97;18.97;100772.16;4457948;32;33245;-79
2022/03/25 09:43:00;;;;;;;14.98;8.18;;;;;;;22.26;19.00;100772.00;4457838;32;33027;-78
2022/03/25 09:45:30;;;;;;;16.55;8.65;;;;;;;22.35;18.16;100774.09;4443905;32;33360;-78
2022/03/25 09:48:01;;;;;;;15.85;8.25;;;;;;;22.27;18.38;100768.94;4471080;32;34444;-79
2022/03/25 09:50:29;;;;;;;15.48;8.55;;;;;;;22.55;18.51;100758.66;4445130;32;32240;-78
2022/03/25 09:52:56;;;;;;;19.10;9.27;;;;;;;22.56;17.87;100760.34;4457844;32;33994;-78
2022/03/25 09:55:46;;;;;;;17.75;8.45;;;;;;;22.81;17.54;100762.59;4448504;32;32417;-78
2022/03/25 09:58:22;;;;;;;16.90;9.95;;;;;;;22.19;17.31;100763.81;4470590;32;33153;-78
2022/03/25 10:00:51;;;;;;;18.52;10.25;;;;;;;22.09;17.76;100758.09;4471529;32;33801;-78
2022/03/25 10:03:32;;;;;;;33.28;21.60;;;;;;;22.74;17.36;100751.59;4458638;32;34551;-78
2022/03/25 10:06:01;;;;;;;17.05;8.45;;;;;;;22.78;18.37;100747.12;4457624;32;32242;-78
2022/03/25 10:08:42;;;;;;;16.85;8.02;;;;;;;22.91;17.34;100734.72;4459120;32;31637;-78
2022/03/25 10:11:24;;;;;;;16.60;8.30;;;;;;;22.94;18.22;100748.19;4457807;32;34627;-78
2022/03/25 10:14:19;;;;;;;16.70;7.72;;;;;;;23.13;18.45;100737.44;4458612;32;32887;-78
2022/03/25 10:16:52;;;;;;;16.90;8.73;;;;;;;22.89;19.20;100734.12;4452727;32;33778;-78
2022/03/25 10:19:22;;;;;;;15.70;8.63;;;;;;;22.46;17.61;100733.09;4472836;32;33381;-78
2022/03/25 10:21:57;;;;;;;15.85;9.10;;;;;;;21.75;18.03;100734.94;4459848;32;34628;-79
2022/03/25 10:24:46;;;;;;;16.80;8.57;;;;;;;22.96;17.39;100717.97;4446935;32;32950;-78
2022/03/25 10:27:21;;;;;;;15.77;8.95;;;;;;;23.39;17.39;100719.75;4447058;32;32580;-78
2022/03/25 10:29:50;;;;;;;15.90;8.98;;;;;;;22.69;17.63;100712.38;4446960;32;32659;-78
2022/03/25 10:32:20;;;;;;;15.15;8.52;;;;;;;22.60;18.34;100706.41;4459721;32;33563;-78
2022/03/25 10:35:09;;;;;;;16.45;8.10;;;;;;;22.59;18.35;100704.72;4459862;32;35397;-78
2022/03/25 10:37:58;;;;;;;16.08;8.32;;;;;;;23.19;17.91;100705.56;4459813;32;33936;-78
2022/03/25 10:40:26;;;;;;;12.23;6.18;;;;;;;23.40;18.21;100710.19;4473051;32;33700;-77
2022/03/25 10:43:08;;;;;;;10.82;6.37;;;;;;;23.51;18.00;100705.50;4446931;32;33140;-78
2022/03/25 10:45:40;;;;;;;14.20;6.90;;;;;;;22.18;17.15;100711.78;4459596;32;34554;-78
2022/03/25 10:48:22;;;;;;;11.90;6.53;;;;;;;22.05;19.09;100708.56;4434620;32;32177;-78
2022/03/25 10:51:00;;;;;;;17.25;7.40;;;;;;;22.88;18.51;100698.84;4459561;32;31844;-78
2022/03/25 10:53:29;;;;;;;15.82;7.60;;;;;;;23.26;17.37;100695.81;4459533;32;32361;-78
2022/03/25 10:55:59;;;;;;;17.00;6.78;;;;;;;23.29;17.35;100691.66;4459498;32;33051;-78
2022/03/25 10:58:27;;;;;;;16.30;7.72;;;;;;;23.56;17.02;100689.59;4459403;32;32286;-78
2022/03/25 11:00:55;;;;;;;15.25;8.40;;;;;;;22.94;17.61;100692.19;4472401;32;34281;-78
2022/03/25 11:03:23;;;;;;;22.73;9.15;;;;;;;22.24;18.36;100693.09;4453896;32;33508;-79
2022/03/25 11:05:52;;;;;;;17.15;8.18;;;;;;;22.29;17.40;100691.22;4443491;32;33703;-79
2022/03/25 11:08:20;;;;;;;23.00;10.80;;;;;;;22.83;18.10;100680.03;4456694;32;32442;-79
2022/03/25 11:10:53;;;;;;;16.48;9.10;;;;;;;22.86;17.33;100685.13;4469286;32;31750;-78
2022/03/25 11:13:24;;;;;;;16.58;9.82;;;;;;;22.87;17.50;100688.75;4456731;32;34630;-78
2022/03/25 11:15:56;;;;;;;16.98;8.88;;;;;;;23.30;18.21;100690.53;4459766;31;33011;-78
2022/03/25 11:18:27;;;;;;;17.12;8.98;;;;;;;23.08;16.80;100682.22;4487811;31;34831;-80
2022/03/25 11:20:58;;;;;;;21.00;10.05;;;;;;;23.01;17.49;100670.41;4488059;31;33065;-78
2022/03/25 11:23:37;;;;;;;16.20;9.02;;;;;;;23.34;17.13;100683.28;4487816;31;34761;-78
2022/03/25 11:26:08;;;;;;;16.37;8.93;;;;;;;23.24;17.66;100674.81;4473857;31;32924;-78
2022/03/25 11:28:37;;;;;;;19.35;8.85;;;;;;;23.44;17.56;100674.06;4488188;31;34150;-78
2022/03/25 11:31:07;;;;;;;14.93;9.18;;;;;;;23.51;17.23;100667.13;4474878;31;34332;-78
2022/03/25 11:34:09;;;;;;;15.63;8.70;;;;;;;23.55;17.38;100664.66;4487884;31;33699;-78
2022/03/25 11:36:41;;;;;;;17.90;9.18;;;;;;;23.61;18.46;100657.97;4488236;31;34214;-78
2022/03/25 11:39:24;;;;;;;19.15;10.75;;;;;;;23.66;17.69;100652.38;4474710;31;32436;-79